sensor_id;sensor_type;location;lat;lon;timestamp;P1;durP1;ratioP1;P2;durP2;ratioP2
5752;SDS011;2901;42.140;24.760;2023-11-19T00:00:49;0.60;;;0.60;;
5752;SDS011;2901;42.140;24.760;2023-11-19T00:03:16;0.60;;;0.60;;
5752;SDS011;2901;42.140;24.760;2023-11-19T00:05:41;0.60;;;0.60;;
5752;SDS011;2901;42.140;24.760;2023-11-19T00:08:07;4.13;;;0.73;;
5752;SDS011;2901;42.140;24.760;2023-11-19T00:10:33;1.30;;;0.80;;
5752;SDS011;2901;42.140;24.760;2023-11-19T00:12:59;0.50;;;0.50;;
5752;SDS011;2901;42.140;24.760;2023-11-19T00:15:24;0.50;;;0.50;;
5752;SDS011;2901;42.140;24.760;2023-11-19T00:17:50;5.07;;;0.60;;
5752;SDS011;2901;42.140;24.760;2023-11-19T00:20:16;0.73;;;0.73;;
5752;SDS011;2901;42.140;24.760;2023-11-19T00:22:43;0.70;;;0.70;;
5752;SDS011;2901;42.140;24.760;2023-11-19T00:25:11;0.70;;;0.70;;
5752;SDS011;2901;42.140;24.760;2023-11-19T00:27:36;0.60;;;0.60;;
5752;SDS011;2901;42.140;24.760;2023-11-19T00:30:05;0.50;;;0.50;;
5752;SDS011;2901;42.140;24.760;2023-11-19T00:32:34;0.67;;;0.67;;
5752;SDS011;2901;42.140;24.760;2023-11-19T00:35:00;0.70;;;0.70;;
5752;SDS011;2901;42.140;24.760;2023-11-19T00:37:25;1.47;;;0.63;;
5752;SDS011;2901;42.140;24.760;2023-11-19T00:39:51;0.63;;;0.63;;
5752;SDS011;2901;42.140;24.760;2023-11-19T00:42:17;0.93;;;0.93;;
5752;SDS011;2901;42.140;24.760;2023-11-19T00:44:42;0.40;;;0.40;;
5752;SDS011;2901;42.140;24.760;2023-11-19T00:47:08;0.40;;;0.40;;
5752;SDS011;2901;42.140;24.760;2023-11-19T00:49:33;0.77;;;0.77;;
5752;SDS011;2901;42.140;24.760;2023-11-19T00:51:59;1.07;;;0.60;;
5752;SDS011;2901;42.140;24.760;2023-11-19T00:54:24;0.50;;;0.50;;
5752;SDS011;2901;42.140;24.760;2023-11-19T00:56:53;0.50;;;0.50;;
5752;SDS011;2901;42.140;24.760;2023-11-19T00:59:19;0.73;;;0.73;;
5752;SDS011;2901;42.140;24.760;2023-11-19T01:01:45;0.60;;;0.60;;
5752;SDS011;2901;42.140;24.760;2023-11-19T01:04:12;0.93;;;0.50;;
5752;SDS011;2901;42.140;24.760;2023-11-19T01:06:38;0.50;;;0.50;;
5752;SDS011;2901;42.140;24.760;2023-11-19T01:09:03;0.47;;;0.47;;
5752;SDS011;2901;42.140;24.760;2023-11-19T01:11:29;0.80;;;0.70;;
5752;SDS011;2901;42.140;24.760;2023-11-19T01:13:54;0.67;;;0.67;;
5752;SDS011;2901;42.140;24.760;2023-11-19T01:16:20;0.60;;;0.60;;
5752;SDS011;2901;42.140;24.760;2023-11-19T01:18:49;0.87;;;0.83;;
5752;SDS011;2901;42.140;24.760;2023-11-19T01:21:15;0.70;;;0.70;;
5752;SDS011;2901;42.140;24.760;2023-11-19T01:23:41;0.60;;;0.60;;
5752;SDS011;2901;42.140;24.760;2023-11-19T01:26:10;0.80;;;0.80;;
5752;SDS011;2901;42.140;24.760;2023-11-19T01:28:37;0.67;;;0.60;;
5752;SDS011;2901;42.140;24.760;2023-11-19T01:31:04;0.70;;;0.70;;
5752;SDS011;2901;42.140;24.760;2023-11-19T01:33:30;0.50;;;0.50;;
5752;SDS011;2901;42.140;24.760;2023-11-19T01:35:55;0.50;;;0.50;;
5752;SDS011;2901;42.140;24.760;2023-11-19T01:38:23;0.43;;;0.43;;
5752;SDS011;2901;42.140;24.760;2023-11-19T01:40:49;0.40;;;0.40;;
5752;SDS011;2901;42.140;24.760;2023-11-19T01:43:34;0.60;;;0.60;;
5752;SDS011;2901;42.140;24.760;2023-11-19T01:46:04;0.50;;;0.50;;
5752;SDS011;2901;42.140;24.760;2023-11-19T01:48:31;0.70;;;0.70;;
5752;SDS011;2901;42.140;24.760;2023-11-19T01:50:57;0.70;;;0.70;;
5752;SDS011;2901;42.140;24.760;2023-11-19T01:53:23;0.60;;;0.60;;
5752;SDS011;2901;42.140;24.760;2023-11-19T01:55:49;0.90;;;0.90;;
5752;SDS011;2901;42.140;24.760;2023-11-19T01:58:16;0.60;;;0.60;;
5752;SDS011;2901;42.140;24.760;2023-11-19T02:00:42;0.67;;;0.67;;
5752;SDS011;2901;42.140;24.760;2023-11-19T02:03:09;0.90;;;0.90;;
5752;SDS011;2901;42.140;24.760;2023-11-19T02:05:35;0.80;;;0.80;;
5752;SDS011;2901;42.140;24.760;2023-11-19T02:08:02;1.43;;;0.70;;
5752;SDS011;2901;42.140;24.760;2023-11-19T02:10:28;0.80;;;0.80;;
5752;SDS011;2901;42.140;24.760;2023-11-19T02:12:53;0.60;;;0.60;;
5752;SDS011;2901;42.140;24.760;2023-11-19T02:15:20;1.10;;;0.73;;
5752;SDS011;2901;42.140;24.760;2023-11-19T02:17:47;0.80;;;0.80;;
5752;SDS011;2901;42.140;24.760;2023-11-19T02:20:12;0.73;;;0.73;;
5752;SDS011;2901;42.140;24.760;2023-11-19T02:22:40;0.63;;;0.63;;
5752;SDS011;2901;42.140;24.760;2023-11-19T02:25:12;0.80;;;0.80;;
5752;SDS011;2901;42.140;24.760;2023-11-19T02:27:57;0.57;;;0.57;;
5752;SDS011;2901;42.140;24.760;2023-11-19T02:30:24;0.80;;;0.80;;
5752;SDS011;2901;42.140;24.760;2023-11-19T02:33:09;0.80;;;0.80;;
5752;SDS011;2901;42.140;24.760;2023-11-19T02:35:34;0.60;;;0.60;;
5752;SDS011;2901;42.140;24.760;2023-11-19T02:38:00;0.77;;;0.77;;
5752;SDS011;2901;42.140;24.760;2023-11-19T02:40:32;0.77;;;0.77;;
5752;SDS011;2901;42.140;24.760;2023-11-19T02:42:57;1.60;;;0.70;;
5752;SDS011;2901;42.140;24.760;2023-11-19T02:45:23;1.00;;;1.00;;
5752;SDS011;2901;42.140;24.760;2023-11-19T02:47:49;0.70;;;0.67;;
5752;SDS011;2901;42.140;24.760;2023-11-19T02:50:15;0.40;;;0.40;;
5752;SDS011;2901;42.140;24.760;2023-11-19T02:52:41;1.00;;;1.00;;
5752;SDS011;2901;42.140;24.760;2023-11-19T02:55:07;0.90;;;0.90;;
5752;SDS011;2901;42.140;24.760;2023-11-19T02:57:44;2.17;;;0.70;;
5752;SDS011;2901;42.140;24.760;2023-11-19T03:00:31;0.90;;;0.90;;
5752;SDS011;2901;42.140;24.760;2023-11-19T03:03:00;1.00;;;1.00;;
5752;SDS011;2901;42.140;24.760;2023-11-19T03:05:42;1.30;;;1.30;;
5752;SDS011;2901;42.140;24.760;2023-11-19T03:08:09;0.90;;;0.90;;
5752;SDS011;2901;42.140;24.760;2023-11-19T03:10:35;1.17;;;1.03;;
5752;SDS011;2901;42.140;24.760;2023-11-19T03:13:00;0.73;;;0.73;;
5752;SDS011;2901;42.140;24.760;2023-11-19T03:15:28;0.90;;;0.90;;
5752;SDS011;2901;42.140;24.760;2023-11-19T03:17:53;0.73;;;0.73;;
5752;SDS011;2901;42.140;24.760;2023-11-19T03:20:19;0.80;;;0.80;;
5752;SDS011;2901;42.140;24.760;2023-11-19T03:22:45;1.13;;;0.93;;
5752;SDS011;2901;42.140;24.760;2023-11-19T03:25:11;1.00;;;0.90;;
5752;SDS011;2901;42.140;24.760;2023-11-19T03:27:38;1.20;;;1.20;;
5752;SDS011;2901;42.140;24.760;2023-11-19T03:30:07;1.07;;;1.07;;
5752;SDS011;2901;42.140;24.760;2023-11-19T03:32:36;1.00;;;1.00;;
5752;SDS011;2901;42.140;24.760;2023-11-19T03:35:02;1.13;;;1.10;;
5752;SDS011;2901;42.140;24.760;2023-11-19T03:37:29;1.17;;;1.17;;
5752;SDS011;2901;42.140;24.760;2023-11-19T03:39:55;0.90;;;0.90;;
5752;SDS011;2901;42.140;24.760;2023-11-19T03:42:24;0.93;;;0.93;;
5752;SDS011;2901;42.140;24.760;2023-11-19T03:44:51;0.97;;;0.97;;
5752;SDS011;2901;42.140;24.760;2023-11-19T03:47:17;1.20;;;1.20;;
5752;SDS011;2901;42.140;24.760;2023-11-19T03:49:46;0.80;;;0.80;;
5752;SDS011;2901;42.140;24.760;2023-11-19T03:52:13;1.17;;;1.17;;
5752;SDS011;2901;42.140;24.760;2023-11-19T03:54:39;1.10;;;1.10;;
5752;SDS011;2901;42.140;24.760;2023-11-19T03:57:04;0.80;;;0.80;;
5752;SDS011;2901;42.140;24.760;2023-11-19T03:59:30;2.40;;;1.17;;
5752;SDS011;2901;42.140;24.760;2023-11-19T04:01:55;1.40;;;1.23;;
5752;SDS011;2901;42.140;24.760;2023-11-19T04:04:22;1.10;;;1.10;;
5752;SDS011;2901;42.140;24.760;2023-11-19T04:06:47;1.53;;;1.07;;
5752;SDS011;2901;42.140;24.760;2023-11-19T04:09:13;1.10;;;1.10;;
5752;SDS011;2901;42.140;24.760;2023-11-19T04:11:39;1.57;;;0.87;;
5752;SDS011;2901;42.140;24.760;2023-11-19T04:14:05;0.80;;;0.80;;
5752;SDS011;2901;42.140;24.760;2023-11-19T04:16:30;0.80;;;0.80;;
5752;SDS011;2901;42.140;24.760;2023-11-19T04:18:56;0.93;;;0.93;;
5752;SDS011;2901;42.140;24.760;2023-11-19T04:21:21;1.03;;;0.93;;
5752;SDS011;2901;42.140;24.760;2023-11-19T04:23:48;0.90;;;0.90;;
5752;SDS011;2901;42.140;24.760;2023-11-19T04:26:13;0.50;;;0.50;;
5752;SDS011;2901;42.140;24.760;2023-11-19T04:28:39;0.80;;;0.80;;
5752;SDS011;2901;42.140;24.760;2023-11-19T04:31:05;0.83;;;0.83;;
5752;SDS011;2901;42.140;24.760;2023-11-19T04:33:31;1.10;;;1.10;;
5752;SDS011;2901;42.140;24.760;2023-11-19T04:35:56;0.60;;;0.60;;
5752;SDS011;2901;42.140;24.760;2023-11-19T04:38:21;0.93;;;0.93;;
5752;SDS011;2901;42.140;24.760;2023-11-19T04:40:47;0.80;;;0.80;;
5752;SDS011;2901;42.140;24.760;2023-11-19T04:43:12;1.13;;;1.13;;
5752;SDS011;2901;42.140;24.760;2023-11-19T04:45:38;1.10;;;1.10;;
5752;SDS011;2901;42.140;24.760;2023-11-19T04:48:04;1.27;;;1.17;;
5752;SDS011;2901;42.140;24.760;2023-11-19T04:50:30;1.30;;;1.20;;
5752;SDS011;2901;42.140;24.760;2023-11-19T04:52:55;1.17;;;1.17;;
5752;SDS011;2901;42.140;24.760;2023-11-19T04:55:21;8.83;;;1.70;;
5752;SDS011;2901;42.140;24.760;2023-11-19T04:57:47;1.20;;;1.20;;
5752;SDS011;2901;42.140;24.760;2023-11-19T05:00:13;0.87;;;0.87;;
5752;SDS011;2901;42.140;24.760;2023-11-19T05:02:38;0.90;;;0.90;;
5752;SDS011;2901;42.140;24.760;2023-11-19T05:05:04;0.87;;;0.87;;
5752;SDS011;2901;42.140;24.760;2023-11-19T05:07:30;0.83;;;0.83;;
5752;SDS011;2901;42.140;24.760;2023-11-19T05:09:56;1.13;;;1.10;;
5752;SDS011;2901;42.140;24.760;2023-11-19T05:12:21;1.37;;;1.37;;
5752;SDS011;2901;42.140;24.760;2023-11-19T05:14:47;1.53;;;1.10;;
5752;SDS011;2901;42.140;24.760;2023-11-19T05:17:16;2.80;;;1.20;;
5752;SDS011;2901;42.140;24.760;2023-11-19T05:19:43;1.10;;;1.10;;
5752;SDS011;2901;42.140;24.760;2023-11-19T05:22:09;1.17;;;1.17;;
5752;SDS011;2901;42.140;24.760;2023-11-19T05:24:34;1.20;;;1.20;;
5752;SDS011;2901;42.140;24.760;2023-11-19T05:27:01;2.03;;;1.50;;
5752;SDS011;2901;42.140;24.760;2023-11-19T05:29:26;1.17;;;1.17;;
5752;SDS011;2901;42.140;24.760;2023-11-19T05:31:52;1.73;;;1.27;;
5752;SDS011;2901;42.140;24.760;2023-11-19T05:34:17;1.30;;;1.30;;
5752;SDS011;2901;42.140;24.760;2023-11-19T05:36:43;1.20;;;1.20;;
5752;SDS011;2901;42.140;24.760;2023-11-19T05:39:08;1.20;;;1.20;;
5752;SDS011;2901;42.140;24.760;2023-11-19T05:41:34;1.10;;;1.10;;
5752;SDS011;2901;42.140;24.760;2023-11-19T05:43:59;0.77;;;0.77;;
5752;SDS011;2901;42.140;24.760;2023-11-19T05:46:24;1.50;;;1.40;;
5752;SDS011;2901;42.140;24.760;2023-11-19T05:48:52;1.50;;;1.40;;
5752;SDS011;2901;42.140;24.760;2023-11-19T05:51:17;1.50;;;1.40;;
5752;SDS011;2901;42.140;24.760;2023-11-19T05:53:43;1.10;;;1.10;;
5752;SDS011;2901;42.140;24.760;2023-11-19T05:56:10;1.10;;;1.10;;
5752;SDS011;2901;42.140;24.760;2023-11-19T05:58:36;1.30;;;1.30;;
5752;SDS011;2901;42.140;24.760;2023-11-19T06:01:02;0.80;;;0.80;;
5752;SDS011;2901;42.140;24.760;2023-11-19T06:03:28;1.20;;;1.20;;
5752;SDS011;2901;42.140;24.760;2023-11-19T06:05:54;1.37;;;1.37;;
5752;SDS011;2901;42.140;24.760;2023-11-19T06:08:20;1.07;;;1.07;;
5752;SDS011;2901;42.140;24.760;2023-11-19T06:10:45;1.30;;;1.20;;
5752;SDS011;2901;42.140;24.760;2023-11-19T06:13:12;0.97;;;0.97;;
5752;SDS011;2901;42.140;24.760;2023-11-19T06:15:40;1.33;;;1.23;;
5752;SDS011;2901;42.140;24.760;2023-11-19T06:18:08;0.93;;;0.93;;
5752;SDS011;2901;42.140;24.760;2023-11-19T06:20:34;1.53;;;1.00;;
5752;SDS011;2901;42.140;24.760;2023-11-19T06:23:00;1.10;;;1.10;;
5752;SDS011;2901;42.140;24.760;2023-11-19T06:25:26;1.17;;;1.17;;
5752;SDS011;2901;42.140;24.760;2023-11-19T06:27:51;0.87;;;0.87;;
5752;SDS011;2901;42.140;24.760;2023-11-19T06:30:17;5.77;;;0.90;;
5752;SDS011;2901;42.140;24.760;2023-11-19T06:32:43;0.90;;;0.90;;
5752;SDS011;2901;42.140;24.760;2023-11-19T06:35:08;1.37;;;1.27;;
5752;SDS011;2901;42.140;24.760;2023-11-19T06:37:35;1.10;;;1.10;;
5752;SDS011;2901;42.140;24.760;2023-11-19T06:40:01;1.40;;;1.40;;
5752;SDS011;2901;42.140;24.760;2023-11-19T06:42:27;1.50;;;1.20;;
5752;SDS011;2901;42.140;24.760;2023-11-19T06:44:52;1.20;;;1.20;;
5752;SDS011;2901;42.140;24.760;2023-11-19T06:47:18;5.23;;;1.60;;
5752;SDS011;2901;42.140;24.760;2023-11-19T06:49:43;1.47;;;1.17;;
5752;SDS011;2901;42.140;24.760;2023-11-19T06:52:09;1.00;;;1.00;;
5752;SDS011;2901;42.140;24.760;2023-11-19T06:54:34;2.20;;;1.30;;
5752;SDS011;2901;42.140;24.760;2023-11-19T06:57:00;1.20;;;1.20;;
5752;SDS011;2901;42.140;24.760;2023-11-19T06:59:26;2.67;;;1.33;;
5752;SDS011;2901;42.140;24.760;2023-11-19T07:01:51;1.20;;;1.20;;
5752;SDS011;2901;42.140;24.760;2023-11-19T07:04:16;0.93;;;0.93;;
5752;SDS011;2901;42.140;24.760;2023-11-19T07:06:42;1.20;;;1.20;;
5752;SDS011;2901;42.140;24.760;2023-11-19T07:09:09;2.17;;;1.50;;
5752;SDS011;2901;42.140;24.760;2023-11-19T07:11:43;0.97;;;0.97;;
5752;SDS011;2901;42.140;24.760;2023-11-19T07:14:10;1.10;;;1.10;;
5752;SDS011;2901;42.140;24.760;2023-11-19T07:16:36;1.27;;;1.27;;
5752;SDS011;2901;42.140;24.760;2023-11-19T07:19:05;1.30;;;1.20;;
5752;SDS011;2901;42.140;24.760;2023-11-19T07:21:31;1.43;;;1.23;;
5752;SDS011;2901;42.140;24.760;2023-11-19T07:23:57;1.03;;;1.00;;
5752;SDS011;2901;42.140;24.760;2023-11-19T07:26:23;1.57;;;1.47;;
5752;SDS011;2901;42.140;24.760;2023-11-19T07:28:49;1.30;;;1.30;;
5752;SDS011;2901;42.140;24.760;2023-11-19T07:31:15;1.33;;;1.30;;
5752;SDS011;2901;42.140;24.760;2023-11-19T07:33:40;2.25;;;1.05;;
5752;SDS011;2901;42.140;24.760;2023-11-19T07:36:09;1.15;;;1.15;;
5752;SDS011;2901;42.140;24.760;2023-11-19T07:38:35;0.82;;;0.82;;
5752;SDS011;2901;42.140;24.760;2023-11-19T07:41:01;0.93;;;0.93;;
5752;SDS011;2901;42.140;24.760;2023-11-19T07:43:27;0.93;;;0.93;;
5752;SDS011;2901;42.140;24.760;2023-11-19T07:45:52;2.10;;;1.10;;
5752;SDS011;2901;42.140;24.760;2023-11-19T07:48:18;0.80;;;0.80;;
5752;SDS011;2901;42.140;24.760;2023-11-19T07:50:48;0.77;;;0.77;;
5752;SDS011;2901;42.140;24.760;2023-11-19T07:53:15;1.10;;;1.00;;
5752;SDS011;2901;42.140;24.760;2023-11-19T07:55:41;0.93;;;0.90;;
5752;SDS011;2901;42.140;24.760;2023-11-19T07:58:06;1.15;;;1.15;;
5752;SDS011;2901;42.140;24.760;2023-11-19T08:00:32;1.15;;;1.15;;
5752;SDS011;2901;42.140;24.760;2023-11-19T08:02:57;1.08;;;1.08;;
5752;SDS011;2901;42.140;24.760;2023-11-19T08:05:22;0.87;;;0.87;;
5752;SDS011;2901;42.140;24.760;2023-11-19T08:07:49;1.30;;;1.20;;
5752;SDS011;2901;42.140;24.760;2023-11-19T08:10:16;2.47;;;1.10;;
5752;SDS011;2901;42.140;24.760;2023-11-19T08:12:41;1.10;;;1.10;;
5752;SDS011;2901;42.140;24.760;2023-11-19T08:15:07;1.10;;;1.10;;
5752;SDS011;2901;42.140;24.760;2023-11-19T08:17:33;0.85;;;0.85;;
5752;SDS011;2901;42.140;24.760;2023-11-19T08:19:58;1.10;;;1.10;;
5752;SDS011;2901;42.140;24.760;2023-11-19T08:22:25;0.90;;;0.90;;
5752;SDS011;2901;42.140;24.760;2023-11-19T08:24:51;1.17;;;1.00;;
5752;SDS011;2901;42.140;24.760;2023-11-19T08:27:16;1.10;;;1.10;;
5752;SDS011;2901;42.140;24.760;2023-11-19T08:29:41;1.30;;;1.30;;
5752;SDS011;2901;42.140;24.760;2023-11-19T08:32:07;0.93;;;0.93;;
5752;SDS011;2901;42.140;24.760;2023-11-19T08:34:32;0.93;;;0.93;;
5752;SDS011;2901;42.140;24.760;2023-11-19T08:36:58;1.33;;;1.23;;
5752;SDS011;2901;42.140;24.760;2023-11-19T08:39:24;1.10;;;1.10;;
5752;SDS011;2901;42.140;24.760;2023-11-19T08:41:50;1.15;;;1.15;;
5752;SDS011;2901;42.140;24.760;2023-11-19T08:44:15;1.25;;;1.25;;
5752;SDS011;2901;42.140;24.760;2023-11-19T08:46:48;2.23;;;1.63;;
5752;SDS011;2901;42.140;24.760;2023-11-19T08:49:14;1.00;;;1.00;;
5752;SDS011;2901;42.140;24.760;2023-11-19T08:51:39;1.20;;;1.20;;
5752;SDS011;2901;42.140;24.760;2023-11-19T08:54:05;1.25;;;1.20;;
5752;SDS011;2901;42.140;24.760;2023-11-19T08:56:30;1.00;;;1.00;;
5752;SDS011;2901;42.140;24.760;2023-11-19T08:58:57;1.10;;;1.10;;
5752;SDS011;2901;42.140;24.760;2023-11-19T09:01:23;1.30;;;1.20;;
5752;SDS011;2901;42.140;24.760;2023-11-19T09:03:49;1.17;;;1.17;;
5752;SDS011;2901;42.140;24.760;2023-11-19T09:06:15;1.10;;;1.10;;
5752;SDS011;2901;42.140;24.760;2023-11-19T09:08:41;1.00;;;0.90;;
5752;SDS011;2901;42.140;24.760;2023-11-19T09:11:08;0.83;;;0.83;;
5752;SDS011;2901;42.140;24.760;2023-11-19T09:13:36;0.90;;;0.90;;
5752;SDS011;2901;42.140;24.760;2023-11-19T09:16:02;1.63;;;0.90;;
5752;SDS011;2901;42.140;24.760;2023-11-19T09:18:29;1.10;;;1.00;;
5752;SDS011;2901;42.140;24.760;2023-11-19T09:20:54;1.40;;;1.40;;
5752;SDS011;2901;42.140;24.760;2023-11-19T09:23:20;0.87;;;0.80;;
5752;SDS011;2901;42.140;24.760;2023-11-19T09:25:45;1.63;;;1.00;;
5752;SDS011;2901;42.140;24.760;2023-11-19T09:28:11;3.15;;;1.17;;
5752;SDS011;2901;42.140;24.760;2023-11-19T09:30:36;1.33;;;1.33;;
5752;SDS011;2901;42.140;24.760;2023-11-19T09:33:02;2.13;;;0.97;;
5752;SDS011;2901;42.140;24.760;2023-11-19T09:35:27;1.10;;;1.10;;
5752;SDS011;2901;42.140;24.760;2023-11-19T09:37:53;1.05;;;1.05;;
5752;SDS011;2901;42.140;24.760;2023-11-19T09:40:18;0.82;;;0.82;;
5752;SDS011;2901;42.140;24.760;2023-11-19T09:42:44;0.80;;;0.80;;
5752;SDS011;2901;42.140;24.760;2023-11-19T09:45:13;0.93;;;0.93;;
5752;SDS011;2901;42.140;24.760;2023-11-19T09:47:45;0.77;;;0.77;;
5752;SDS011;2901;42.140;24.760;2023-11-19T09:50:16;1.02;;;1.02;;
5752;SDS011;2901;42.140;24.760;2023-11-19T09:52:46;0.85;;;0.85;;
5752;SDS011;2901;42.140;24.760;2023-11-19T09:55:12;0.82;;;0.82;;
5752;SDS011;2901;42.140;24.760;2023-11-19T09:57:38;1.10;;;1.10;;
5752;SDS011;2901;42.140;24.760;2023-11-19T10:00:05;0.97;;;0.97;;
5752;SDS011;2901;42.140;24.760;2023-11-19T10:02:33;0.90;;;0.90;;
5752;SDS011;2901;42.140;24.760;2023-11-19T10:05:04;1.25;;;1.15;;
5752;SDS011;2901;42.140;24.760;2023-11-19T10:07:31;1.33;;;1.23;;
5752;SDS011;2901;42.140;24.760;2023-11-19T10:10:01;1.15;;;1.15;;
5752;SDS011;2901;42.140;24.760;2023-11-19T10:12:29;5.07;;;1.02;;
5752;SDS011;2901;42.140;24.760;2023-11-19T10:14:56;1.20;;;1.10;;
5752;SDS011;2901;42.140;24.760;2023-11-19T10:17:27;0.77;;;0.77;;
5752;SDS011;2901;42.140;24.760;2023-11-19T10:19:54;1.10;;;1.10;;
5752;SDS011;2901;42.140;24.760;2023-11-19T10:22:19;1.80;;;1.27;;
5752;SDS011;2901;42.140;24.760;2023-11-19T10:24:45;1.33;;;1.23;;
5752;SDS011;2901;42.140;24.760;2023-11-19T10:27:10;0.95;;;0.95;;
5752;SDS011;2901;42.140;24.760;2023-11-19T10:29:39;0.95;;;0.95;;
5752;SDS011;2901;42.140;24.760;2023-11-19T10:32:04;1.15;;;1.08;;
5752;SDS011;2901;42.140;24.760;2023-11-19T10:34:30;1.40;;;1.30;;
5752;SDS011;2901;42.140;24.760;2023-11-19T10:36:55;3.35;;;1.27;;
5752;SDS011;2901;42.140;24.760;2023-11-19T10:39:21;1.08;;;1.08;;
5752;SDS011;2901;42.140;24.760;2023-11-19T10:41:48;1.15;;;1.15;;
5752;SDS011;2901;42.140;24.760;2023-11-19T10:44:30;1.25;;;1.25;;
5752;SDS011;2901;42.140;24.760;2023-11-19T10:46:56;1.17;;;1.17;;
5752;SDS011;2901;42.140;24.760;2023-11-19T10:49:21;1.65;;;1.23;;
5752;SDS011;2901;42.140;24.760;2023-11-19T10:51:47;1.58;;;1.15;;
5752;SDS011;2901;42.140;24.760;2023-11-19T10:54:14;1.27;;;1.25;;
5752;SDS011;2901;42.140;24.760;2023-11-19T10:56:43;1.10;;;1.10;;
5752;SDS011;2901;42.140;24.760;2023-11-19T10:59:09;0.95;;;0.95;;
5752;SDS011;2901;42.140;24.760;2023-11-19T11:01:45;1.35;;;1.25;;
5752;SDS011;2901;42.140;24.760;2023-11-19T11:04:23;1.17;;;1.17;;
5752;SDS011;2901;42.140;24.760;2023-11-19T11:06:50;1.20;;;1.20;;
5752;SDS011;2901;42.140;24.760;2023-11-19T11:09:16;0.80;;;0.80;;
5752;SDS011;2901;42.140;24.760;2023-11-19T11:11:42;0.88;;;0.88;;
5752;SDS011;2901;42.140;24.760;2023-11-19T11:14:12;1.33;;;1.33;;
5752;SDS011;2901;42.140;24.760;2023-11-19T11:16:41;0.93;;;0.93;;
5752;SDS011;2901;42.140;24.760;2023-11-19T11:19:08;0.90;;;0.90;;
5752;SDS011;2901;42.140;24.760;2023-11-19T11:21:34;1.20;;;1.20;;
5752;SDS011;2901;42.140;24.760;2023-11-19T11:27:26;1.00;;;1.00;;
5752;SDS011;2901;42.140;24.760;2023-11-19T11:32:53;1.30;;;1.30;;
5752;SDS011;2901;42.140;24.760;2023-11-19T11:38:00;1.00;;;1.00;;
5752;SDS011;2901;42.140;24.760;2023-11-19T11:40:29;0.80;;;0.80;;
5752;SDS011;2901;42.140;24.760;2023-11-19T11:42:54;0.90;;;0.90;;
5752;SDS011;2901;42.140;24.760;2023-11-19T11:45:20;1.23;;;1.15;;
5752;SDS011;2901;42.140;24.760;2023-11-19T11:50:34;1.00;;;1.00;;
5752;SDS011;2901;42.140;24.760;2023-11-19T11:53:21;1.10;;;1.10;;
5752;SDS011;2901;42.140;24.760;2023-11-19T11:58:20;2.65;;;1.30;;
5752;SDS011;2901;42.140;24.760;2023-11-19T12:00:47;2.40;;;1.13;;
5752;SDS011;2901;42.140;24.760;2023-11-19T12:03:13;0.80;;;0.80;;
5752;SDS011;2901;42.140;24.760;2023-11-19T12:05:43;1.48;;;0.90;;
5752;SDS011;2901;42.140;24.760;2023-11-19T12:08:10;1.13;;;0.80;;
5752;SDS011;2901;42.140;24.760;2023-11-19T12:10:37;0.93;;;0.93;;
5752;SDS011;2901;42.140;24.760;2023-11-19T12:13:15;1.17;;;1.17;;
5752;SDS011;2901;42.140;24.760;2023-11-19T12:18:22;1.38;;;1.38;;
5752;SDS011;2901;42.140;24.760;2023-11-19T12:20:48;2.03;;;1.20;;
5752;SDS011;2901;42.140;24.760;2023-11-19T12:23:14;1.00;;;1.00;;
5752;SDS011;2901;42.140;24.760;2023-11-19T12:25:40;2.58;;;1.75;;
5752;SDS011;2901;42.140;24.760;2023-11-19T12:28:11;1.42;;;1.40;;
5752;SDS011;2901;42.140;24.760;2023-11-19T12:30:37;1.15;;;1.15;;
5752;SDS011;2901;42.140;24.760;2023-11-19T12:33:07;2.80;;;2.10;;
5752;SDS011;2901;42.140;24.760;2023-11-19T12:35:40;2.10;;;2.00;;
5752;SDS011;2901;42.140;24.760;2023-11-19T12:38:06;1.50;;;1.50;;
5752;SDS011;2901;42.140;24.760;2023-11-19T12:40:31;1.45;;;1.35;;
5752;SDS011;2901;42.140;24.760;2023-11-19T12:42:57;1.50;;;1.50;;
5752;SDS011;2901;42.140;24.760;2023-11-19T12:45:24;1.75;;;1.67;;
5752;SDS011;2901;42.140;24.760;2023-11-19T12:47:49;1.88;;;1.77;;
5752;SDS011;2901;42.140;24.760;2023-11-19T12:50:17;1.90;;;1.80;;
5752;SDS011;2901;42.140;24.760;2023-11-19T12:52:54;2.08;;;1.98;;
5752;SDS011;2901;42.140;24.760;2023-11-19T12:55:24;1.63;;;1.52;;
5752;SDS011;2901;42.140;24.760;2023-11-19T12:57:54;2.00;;;1.90;;
5752;SDS011;2901;42.140;24.760;2023-11-19T13:00:21;2.15;;;2.05;;
5752;SDS011;2901;42.140;24.760;2023-11-19T13:02:48;1.25;;;1.20;;
5752;SDS011;2901;42.140;24.760;2023-11-19T13:08:06;1.77;;;1.77;;
5752;SDS011;2901;42.140;24.760;2023-11-19T13:10:34;6.53;;;2.08;;
5752;SDS011;2901;42.140;24.760;2023-11-19T13:13:14;1.67;;;1.42;;
5752;SDS011;2901;42.140;24.760;2023-11-19T13:15:40;3.88;;;1.70;;
5752;SDS011;2901;42.140;24.760;2023-11-19T13:18:05;3.25;;;1.85;;
5752;SDS011;2901;42.140;24.760;2023-11-19T13:20:31;2.75;;;1.95;;
5752;SDS011;2901;42.140;24.760;2023-11-19T13:22:58;1.88;;;1.77;;
5752;SDS011;2901;42.140;24.760;2023-11-19T13:25:25;1.23;;;1.23;;
5752;SDS011;2901;42.140;24.760;2023-11-19T13:27:51;1.98;;;1.88;;
5752;SDS011;2901;42.140;24.760;2023-11-19T13:30:17;1.63;;;1.63;;
5752;SDS011;2901;42.140;24.760;2023-11-19T13:32:43;1.42;;;1.27;;
5752;SDS011;2901;42.140;24.760;2023-11-19T13:35:09;4.43;;;1.75;;
5752;SDS011;2901;42.140;24.760;2023-11-19T13:37:35;2.15;;;1.63;;
5752;SDS011;2901;42.140;24.760;2023-11-19T13:40:00;1.48;;;1.40;;
5752;SDS011;2901;42.140;24.760;2023-11-19T13:42:25;2.60;;;2.40;;
5752;SDS011;2901;42.140;24.760;2023-11-19T13:44:52;1.33;;;1.33;;
5752;SDS011;2901;42.140;24.760;2023-11-19T13:47:17;3.15;;;2.10;;
5752;SDS011;2901;42.140;24.760;2023-11-19T13:49:44;8.80;;;2.20;;
5752;SDS011;2901;42.140;24.760;2023-11-19T13:52:10;2.17;;;1.65;;
5752;SDS011;2901;42.140;24.760;2023-11-19T13:54:36;1.35;;;1.35;;
5752;SDS011;2901;42.140;24.760;2023-11-19T13:57:02;1.30;;;1.30;;
5752;SDS011;2901;42.140;24.760;2023-11-19T13:59:29;1.77;;;1.67;;
5752;SDS011;2901;42.140;24.760;2023-11-19T14:01:56;1.75;;;1.75;;
5752;SDS011;2901;42.140;24.760;2023-11-19T14:04:21;2.08;;;1.98;;
5752;SDS011;2901;42.140;24.760;2023-11-19T14:06:47;1.60;;;1.60;;
5752;SDS011;2901;42.140;24.760;2023-11-19T14:09:12;1.95;;;1.85;;
5752;SDS011;2901;42.140;24.760;2023-11-19T14:11:38;3.15;;;1.40;;
5752;SDS011;2901;42.140;24.760;2023-11-19T14:14:03;1.90;;;1.80;;
5752;SDS011;2901;42.140;24.760;2023-11-19T14:16:29;2.20;;;1.58;;
5752;SDS011;2901;42.140;24.760;2023-11-19T14:18:54;2.00;;;1.90;;
5752;SDS011;2901;42.140;24.760;2023-11-19T14:21:20;2.30;;;2.20;;
5752;SDS011;2901;42.140;24.760;2023-11-19T14:23:45;1.73;;;1.73;;
5752;SDS011;2901;42.140;24.760;2023-11-19T14:26:11;1.92;;;1.80;;
5752;SDS011;2901;42.140;24.760;2023-11-19T14:28:37;2.40;;;1.60;;
5752;SDS011;2901;42.140;24.760;2023-11-19T14:31:03;1.70;;;1.70;;
5752;SDS011;2901;42.140;24.760;2023-11-19T14:33:29;2.10;;;2.00;;
5752;SDS011;2901;42.140;24.760;2023-11-19T14:35:54;2.13;;;2.03;;
5752;SDS011;2901;42.140;24.760;2023-11-19T14:38:19;2.17;;;2.08;;
5752;SDS011;2901;42.140;24.760;2023-11-19T14:40:45;1.90;;;1.80;;
5752;SDS011;2901;42.140;24.760;2023-11-19T14:43:10;2.30;;;2.10;;
5752;SDS011;2901;42.140;24.760;2023-11-19T14:45:36;1.90;;;1.80;;
5752;SDS011;2901;42.140;24.760;2023-11-19T14:48:01;2.93;;;1.73;;
5752;SDS011;2901;42.140;24.760;2023-11-19T14:50:27;1.77;;;1.67;;
5752;SDS011;2901;42.140;24.760;2023-11-19T14:52:53;1.33;;;1.33;;
5752;SDS011;2901;42.140;24.760;2023-11-19T14:55:18;1.88;;;1.77;;
5752;SDS011;2901;42.140;24.760;2023-11-19T14:57:44;4.97;;;2.08;;
5752;SDS011;2901;42.140;24.760;2023-11-19T15:00:10;1.53;;;1.43;;
5752;SDS011;2901;42.140;24.760;2023-11-19T15:02:40;1.73;;;1.63;;
5752;SDS011;2901;42.140;24.760;2023-11-19T15:05:06;1.80;;;1.70;;
5752;SDS011;2901;42.140;24.760;2023-11-19T15:07:35;2.07;;;1.97;;
5752;SDS011;2901;42.140;24.760;2023-11-19T15:10:01;1.57;;;1.50;;
5752;SDS011;2901;42.140;24.760;2023-11-19T15:12:30;1.60;;;1.53;;
5752;SDS011;2901;42.140;24.760;2023-11-19T15:14:55;1.57;;;1.53;;
5752;SDS011;2901;42.140;24.760;2023-11-19T15:17:20;1.60;;;1.50;;